Curtis, AR (71728)

7:14 PM CDT on July 30, 2016 (GMT -0500)
Richwoods | | Change Station

Elev 285 ft 34.03 °N, 93.10 °W | Updated 4 minutes ago

Light Thunderstorms and Rain
Light Thunderstorm Rain
72.1 °F
Feels Like 72.1 °F
N
0.0
Wind Variable Wind from WNW

Today
High -- | Low -- °F
--% Chance of Precip.
Yesterday
High -- | Low -- °F
Precip. -- in
Pressure 29.94 in
Visibility 10.0 miles
Clouds Few 600 ft
Dew Point 70 °F
Humidity 93%
Rainfall 0.35 in
Snow Depth Not available.
6:22 AM 8:14 PM
Waning Crescent, 10% visible
SPECI KADF 310008Z AUTO 05005KT 10SM -TSRA FEW006 23/22 A2994 RMK AO2 LTG DSNT NE AND NW TSB2357 P0000
Pressure 29.94 in
Visibility 10.0 miles
Clouds Few 600 ft
Dew Point 70 °F
Humidity 93%
Rainfall 0.35 in
Snow Depth Not available.
6:22 AM 8:14 PM
Waning Crescent, 10% visible
SPECI KADF 310008Z AUTO 05005KT 10SM -TSRA FEW006 23/22 A2994 RMK AO2 LTG DSNT NE AND NW TSB2357 P0000

10-Day Weather Forecast

Almanac

Astronomy

Jul. 30, 2016 Rise Set
Actual Time
Civil Twilight
Nautical Twilight
Astronomical Twilight
Moon
Length of Visible Light
Length of Day
Tomorrow will be .
, % of the Moon is Illuminated

Today's Extremes

State Highs State Lows

Community

WunderPhotos

Upload Photos

1,928,682 photos uploaded!

WunderBlog® & News

Nearby

Air Quality

  Air Quality AQ Index Pollutant
Not available.

Snow Depth

Station Depth Elevation

Earthquake Activity

City Distance Mag. Time & Date
Minimum magnitude displayed is 2.5.

Coastal Water Temperatures

Place Temperature

Stations

Nearby Weather Stations

Station Location Temp. Windchill Dew Point Humidity Wind Precip. Elev Updated Type
                   

Watches & Warnings

There are currently no watches in effect.